Time;durP1;ratioP1;P1;durP2;ratioP2;P2;SDS_P1;SDS_P2;PMS_P1;PMS_P2;Temp;Humidity;BMP_temperature;BMP_pressure;BME280_temperature;BME280_humidity;BME280_pressure;Samples;Min_cycle;Max_cycle;Signal;HPM_P1;HPM_P2
2023/02/27 00:01:11;;;;;;;;;;;18.60;29.60;;;;;;8363684;28;19943;-43
2023/02/27 00:05:11;;;;;;;;;;;18.60;29.60;;;;;;8363912;28;19999;-44
2023/02/27 00:09:12;;;;;;;;;;;18.60;29.60;;;;;;8363501;28;19916;-43
2023/02/27 00:13:12;;;;;;;;;;;18.50;29.50;;;;;;8362913;28;19932;-43
2023/02/27 00:17:13;;;;;;;;;;;18.50;29.50;;;;;;8363517;28;19921;-44
2023/02/27 00:21:13;;;;;;;;;;;18.50;29.50;;;;;;8363226;28;19917;-44
2023/02/27 00:25:14;;;;;;;;;;;18.40;29.50;;;;;;8362968;28;19957;-43
2023/02/27 00:29:14;;;;;;;;;;;18.40;29.50;;;;;;8363166;28;19917;-43
2023/02/27 00:33:15;;;;;;;;;;;18.40;29.50;;;;;;8363055;28;19995;-42
2023/02/27 00:37:15;;;;;;;;;;;18.40;29.50;;;;;;8362574;28;19925;-44
2023/02/27 00:41:16;;;;;;;;;;;18.40;29.60;;;;;;8367456;28;19986;-43
2023/02/27 00:45:16;;;;;;;;;;;18.30;29.50;;;;;;8369540;28;19917;-43
2023/02/27 00:49:18;;;;;;;;;;;18.30;29.50;;;;;;8369184;28;19917;-43
2023/02/27 00:53:19;;;;;;;;;;;18.30;29.60;;;;;;8369620;28;20352;-44
2023/02/27 00:57:19;;;;;;;;;;;18.30;29.50;;;;;;8369353;28;19979;-43
2023/02/27 01:01:20;;;;;;;;;;;18.30;29.50;;;;;;8369570;28;19921;-43
2023/02/27 01:05:20;;;;;;;;;;;18.30;29.60;;;;;;8369261;28;19924;-43
2023/02/27 01:09:21;;;;;;;;;;;18.20;29.50;;;;;;8368877;28;19956;-43
2023/02/27 01:13:21;;;;;;;;;;;18.20;29.50;;;;;;8368375;28;19916;-43
2023/02/27 01:17:22;;;;;;;;;;;18.20;29.60;;;;;;8368872;28;20059;-42
2023/02/27 01:21:23;;;;;;;;;;;18.20;29.60;;;;;;8368712;28;20433;-42
2023/02/27 01:25:23;;;;;;;;;;;18.20;29.60;;;;;;8367985;28;19917;-43
2023/02/27 01:29:24;;;;;;;;;;;18.10;29.50;;;;;;8368641;28;20300;-42
2023/02/27 01:33:24;;;;;;;;;;;18.10;29.60;;;;;;8368295;28;19912;-43
2023/02/27 01:37:24;;;;;;;;;;;18.10;29.60;;;;;;8367504;28;20019;-43
2023/02/27 01:41:25;;;;;;;;;;;18.10;29.60;;;;;;8368298;28;19919;-43
2023/02/27 01:45:28;;;;;;;;;;;18.10;29.60;;;;;;8367892;28;19917;-43
2023/02/27 01:49:31;;;;;;;;;;;18.00;29.60;;;;;;8367283;28;19917;-44
2023/02/27 01:53:32;;;;;;;;;;;18.00;29.60;;;;;;8366277;28;19920;-43
2023/02/27 01:57:34;;;;;;;;;;;18.00;29.60;;;;;;8367377;28;19925;-43
2023/02/27 02:01:34;;;;;;;;;;;18.00;29.60;;;;;;8367829;28;20015;-43
2023/02/27 02:05:35;;;;;;;;;;;18.00;29.60;;;;;;8354738;28;19921;-43
2023/02/27 02:09:38;;;;;;;;;;;18.00;29.60;;;;;;8356557;28;20392;-44
2023/02/27 02:13:39;;;;;;;;;;;18.00;29.60;;;;;;8366596;28;20024;-44
2023/02/27 02:17:52;;;;;;;;;;;17.90;29.60;;;;;;8366694;28;19932;-44
2023/02/27 02:22:04;;;;;;;;;;;17.90;29.60;;;;;;8366496;28;20271;-44
2023/02/27 02:26:08;;;;;;;;;;;17.90;29.60;;;;;;8367011;28;19920;-44
2023/02/27 02:30:28;;;;;;;;;;;17.90;29.60;;;;;;8366610;28;19924;-49
2023/02/27 02:34:34;;;;;;;;;;;17.90;29.50;;;;;;8366045;28;20370;-43
2023/02/27 02:38:44;;;;;;;;;;;17.80;29.50;;;;;;8366094;28;19920;-44
2023/02/27 02:42:53;;;;;;;;;;;17.90;29.60;;;;;;8347642;28;19917;-43
2023/02/27 02:46:53;;;;;;;;;;;17.80;29.50;;;;;;8366210;28;19917;-44
2023/02/27 02:50:57;;;;;;;;;;;17.80;29.50;;;;;;8365721;28;19916;-43
2023/02/27 02:55:16;;;;;;;;;;;17.80;29.60;;;;;;8365306;28;19975;-44
2023/02/27 02:59:16;;;;;;;;;;;17.80;29.60;;;;;;8365903;28;19994;-44
2023/02/27 03:03:24;;;;;;;;;;;17.70;29.60;;;;;;8364828;28;19916;-44
2023/02/27 03:07:34;;;;;;;;;;;17.80;29.70;;;;;;8364881;28;20389;-44
2023/02/27 03:11:36;;;;;;;;;;;17.70;29.50;;;;;;8365637;28;20364;-44
2023/02/27 03:15:43;;;;;;;;;;;17.70;29.50;;;;;;8365144;28;19925;-43
2023/02/27 03:20:05;;;;;;;;;;;17.70;29.70;;;;;;8364337;28;19925;-45
2023/02/27 03:24:08;;;;;;;;;;;17.70;29.50;;;;;;8364865;28;19916;-43
2023/02/27 03:28:11;;;;;;;;;;;17.70;29.50;;;;;;8364182;28;20008;-44
2023/02/27 03:32:29;;;;;;;;;;;17.70;29.50;;;;;;8364814;28;19913;-43
2023/02/27 03:36:35;;;;;;;;;;;17.60;29.50;;;;;;8364820;28;19990;-43
2023/02/27 03:40:46;;;;;;;;;;;17.60;29.50;;;;;;8363740;28;19917;-45
2023/02/27 03:44:54;;;;;;;;;;;17.60;29.50;;;;;;8364451;28;19917;-44
2023/02/27 03:48:54;;;;;;;;;;;17.60;29.50;;;;;;8363408;28;19920;-43
2023/02/27 03:52:56;;;;;;;;;;;17.60;29.60;;;;;;8363887;28;19978;-44
2023/02/27 03:56:59;;;;;;;;;;;17.60;29.60;;;;;;8364102;28;19924;-44
2023/02/27 04:00:59;;;;;;;;;;;17.50;29.50;;;;;;8363741;28;19920;-43
2023/02/27 04:05:00;;;;;;;;;;;17.60;29.60;;;;;;8363534;28;19924;-43
2023/02/27 04:09:03;;;;;;;;;;;17.60;29.50;;;;;;8363543;28;19913;-44
2023/02/27 04:13:21;;;;;;;;;;;17.50;29.50;;;;;;8362805;28;19931;-44
2023/02/27 04:17:23;;;;;;;;;;;17.50;29.60;;;;;;8363133;28;19921;-44
2023/02/27 04:21:28;;;;;;;;;;;17.50;29.60;;;;;;8363090;28;19917;-42
2023/02/27 04:25:43;;;;;;;;;;;17.50;29.90;;;;;;8362544;28;19917;-42
2023/02/27 04:30:02;;;;;;;;;;;17.50;29.50;;;;;;8362945;28;19913;-43
2023/02/27 04:34:09;;;;;;;;;;;17.50;29.50;;;;;;8362432;28;20408;-43
2023/02/27 04:38:13;;;;;;;;;;;17.50;29.60;;;;;;8362982;28;19925;-44
2023/02/27 04:42:15;;;;;;;;;;;17.50;29.60;;;;;;8363008;28;19921;-44
2023/02/27 04:46:18;;;;;;;;;;;17.50;29.60;;;;;;8362332;28;19917;-44
2023/02/27 04:50:22;;;;;;;;;;;17.50;29.60;;;;;;8362921;28;19917;-44
2023/02/27 04:54:32;;;;;;;;;;;17.50;29.60;;;;;;8362819;28;19955;-44
2023/02/27 04:58:37;;;;;;;;;;;17.50;29.60;;;;;;8362175;28;20136;-45
2023/02/27 05:02:46;;;;;;;;;;;17.50;29.60;;;;;;8362735;28;19913;-45
2023/02/27 05:06:48;;;;;;;;;;;17.50;29.50;;;;;;8362189;28;20293;-44
2023/02/27 05:10:52;;;;;;;;;;;17.50;29.50;;;;;;8361482;28;19920;-43
2023/02/27 05:15:04;;;;;;;;;;;17.50;29.50;;;;;;8361697;28;21332;-45
2023/02/27 05:19:05;;;;;;;;;;;17.60;29.50;;;;;;8361713;28;19935;-43
2023/02/27 05:23:19;;;;;;;;;;;17.80;29.40;;;;;;8362385;28;20289;-42
2023/02/27 05:27:38;;;;;;;;;;;17.90;29.40;;;;;;8366600;28;20314;-44
2023/02/27 05:31:42;;;;;;;;;;;18.00;29.40;;;;;;8368219;28;19917;-44
2023/02/27 05:35:55;;;;;;;;;;;18.10;29.40;;;;;;8368323;28;20307;-45
2023/02/27 05:39:56;;;;;;;;;;;18.20;29.40;;;;;;8367447;28;20377;-43
2023/02/27 05:44:07;;;;;;;;;;;18.20;29.30;;;;;;8368187;28;19916;-45
2023/02/27 05:48:09;;;;;;;;;;;18.30;29.40;;;;;;8368149;28;19913;-45
2023/02/27 05:52:12;;;;;;;;;;;18.40;29.30;;;;;;8367285;28;19963;-44
2023/02/27 05:56:15;;;;;;;;;;;18.40;29.30;;;;;;8367396;28;19916;-44
2023/02/27 06:00:34;;;;;;;;;;;18.50;29.30;;;;;;8367900;28;19929;-44
2023/02/27 06:04:34;;;;;;;;;;;18.60;29.30;;;;;;8367037;28;19935;-44
2023/02/27 06:08:35;;;;;;;;;;;18.60;29.30;;;;;;8367685;28;20354;-45
2023/02/27 06:12:35;;;;;;;;;;;18.70;29.20;;;;;;8367140;28;19913;-45
2023/02/27 06:16:37;;;;;;;;;;;18.70;29.20;;;;;;8366534;28;19921;-44
2023/02/27 06:20:38;;;;;;;;;;;18.70;29.20;;;;;;8367050;28;19923;-44
2023/02/27 06:24:39;;;;;;;;;;;18.70;29.20;;;;;;8348272;28;19917;-44
2023/02/27 06:28:39;;;;;;;;;;;18.80;29.20;;;;;;8366632;28;19917;-45
2023/02/27 06:32:40;;;;;;;;;;;18.80;29.10;;;;;;8366745;28;19917;-42
2023/02/27 06:36:40;;;;;;;;;;;18.80;29.10;;;;;;8365208;28;20397;-44
2023/02/27 06:40:41;;;;;;;;;;;18.80;29.20;;;;;;8366411;28;19924;-44
2023/02/27 06:44:41;;;;;;;;;;;18.90;29.20;;;;;;8366208;28;19917;-44
2023/02/27 06:48:42;;;;;;;;;;;18.90;29.20;;;;;;8365686;28;19917;-42
2023/02/27 06:52:42;;;;;;;;;;;18.90;29.20;;;;;;8365717;28;19917;-45
2023/02/27 06:56:43;;;;;;;;;;;18.90;29.20;;;;;;8365802;28;20381;-44
2023/02/27 07:00:43;;;;;;;;;;;18.90;29.20;;;;;;8365243;28;19921;-44
2023/02/27 07:04:44;;;;;;;;;;;19.00;29.20;;;;;;8365635;28;19916;-43
2023/02/27 07:08:44;;;;;;;;;;;19.00;29.20;;;;;;8365434;28;19913;-46
2023/02/27 07:12:45;;;;;;;;;;;19.00;29.10;;;;;;8364669;28;20003;-44
2023/02/27 07:16:49;;;;;;;;;;;19.00;29.10;;;;;;8365229;28;19932;-46
2023/02/27 07:20:50;;;;;;;;;;;19.00;29.00;;;;;;8364974;28;19921;-44
2023/02/27 07:24:51;;;;;;;;;;;19.10;29.00;;;;;;8364220;28;20427;-45
2023/02/27 07:28:51;;;;;;;;;;;19.10;29.10;;;;;;8364897;28;20003;-45
2023/02/27 07:32:51;;;;;;;;;;;19.20;29.10;;;;;;8364697;28;19945;-45
2023/02/27 07:36:52;;;;;;;;;;;19.10;29.10;;;;;;8364039;28;19952;-45
2023/02/27 07:40:52;;;;;;;;;;;19.20;29.10;;;;;;8364233;28;19962;-45
2023/02/27 07:44:53;;;;;;;;;;;19.20;29.00;;;;;;8364276;28;19963;-44
2023/02/27 07:48:53;;;;;;;;;;;19.30;29.00;;;;;;8363727;28;19913;-44
2023/02/27 07:52:54;;;;;;;;;;;19.30;29.00;;;;;;8364194;28;19916;-44
2023/02/27 07:56:54;;;;;;;;;;;19.30;29.00;;;;;;8364073;28;19925;-45
2023/02/27 08:00:55;;;;;;;;;;;19.30;28.90;;;;;;8363793;28;19928;-45
2023/02/27 08:04:55;;;;;;;;;;;19.30;29.20;;;;;;8363760;28;19917;-45
2023/02/27 08:08:56;;;;;;;;;;;19.30;28.80;;;;;;8362523;28;19916;-46
2023/02/27 08:12:56;;;;;;;;;;;19.30;28.80;;;;;;8362677;28;19925;-44
2023/02/27 08:16:59;;;;;;;;;;;19.30;28.80;;;;;;8363098;28;19968;-46
2023/02/27 08:20:59;;;;;;;;;;;19.30;28.70;;;;;;8363372;28;20007;-44
2023/02/27 08:25:00;;;;;;;;;;;19.20;28.80;;;;;;8362634;28;19923;-45
2023/02/27 08:29:00;;;;;;;;;;;19.20;28.70;;;;;;8363551;28;19986;-46
2023/02/27 08:33:01;;;;;;;;;;;19.20;28.80;;;;;;8362848;28;20362;-45
2023/02/27 08:37:02;;;;;;;;;;;19.10;28.80;;;;;;8362620;28;20003;-45
2023/02/27 08:41:03;;;;;;;;;;;19.10;28.80;;;;;;8363172;28;20355;-44
2023/02/27 08:45:03;;;;;;;;;;;19.10;28.80;;;;;;8362926;28;19917;-44
2023/02/27 08:49:04;;;;;;;;;;;19.00;28.80;;;;;;8362562;28;19920;-45
2023/02/27 08:53:04;;;;;;;;;;;19.00;28.90;;;;;;8356460;28;19928;-46
2023/02/27 08:57:05;;;;;;;;;;;18.90;28.80;;;;;;8354156;28;20409;-45
2023/02/27 09:01:05;;;;;;;;;;;18.90;28.90;;;;;;8359730;28;20377;-44
2023/02/27 09:05:06;;;;;;;;;;;18.90;28.90;;;;;;8360638;28;19917;-45
2023/02/27 09:09:06;;;;;;;;;;;18.80;28.90;;;;;;8366184;28;19962;-43
2023/02/27 09:13:07;;;;;;;;;;;18.80;28.80;;;;;;8364235;28;20369;-45
2023/02/27 09:17:07;;;;;;;;;;;18.80;28.80;;;;;;8349638;28;19931;-45
2023/02/27 09:21:08;;;;;;;;;;;18.70;28.80;;;;;;8353291;28;20366;-45
2023/02/27 09:25:08;;;;;;;;;;;18.70;28.80;;;;;;8366320;28;19924;-45
2023/02/27 09:29:08;;;;;;;;;;;18.70;28.90;;;;;;8352277;28;19917;-44
2023/02/27 09:33:09;;;;;;;;;;;18.60;29.00;;;;;;8360561;28;19917;-46
2023/02/27 09:37:09;;;;;;;;;;;18.60;29.00;;;;;;8364007;28;19932;-46
2023/02/27 09:41:31;;;;;;;;;;;18.50;29.00;;;;;;8354737;28;20384;-45
2023/02/27 09:45:37;;;;;;;;;;;18.50;29.00;;;;;;8360620;28;19914;-46
2023/02/27 09:49:48;;;;;;;;;;;18.50;29.00;;;;;;8352204;28;20354;-46
2023/02/27 09:53:51;;;;;;;;;;;18.40;29.00;;;;;;8366070;28;19918;-44
2023/02/27 09:58:00;;;;;;;;;;;18.40;29.00;;;;;;8363739;28;20324;-45
2023/02/27 10:02:19;;;;;;;;;;;18.40;29.00;;;;;;8351079;28;19971;-44
2023/02/27 10:06:32;;;;;;;;;;;18.40;29.00;;;;;;8344995;28;19924;-45
2023/02/27 10:10:40;;;;;;;;;;;18.30;29.10;;;;;;8357547;28;20396;-45
2023/02/27 10:14:42;;;;;;;;;;;18.30;29.10;;;;;;8365000;28;19921;-44
2023/02/27 10:18:43;;;;;;;;;;;18.30;29.10;;;;;;8355499;28;19932;-44
2023/02/27 10:22:44;;;;;;;;;;;18.30;29.20;;;;;;8353874;28;19917;-45
2023/02/27 10:26:45;;;;;;;;;;;18.20;29.10;;;;;;8354177;28;19917;-44
2023/02/27 10:30:47;;;;;;;;;;;18.20;29.20;;;;;;8364263;28;19924;-45
2023/02/27 10:34:54;;;;;;;;;;;18.20;29.20;;;;;;8365237;28;19916;-44
2023/02/27 10:38:56;;;;;;;;;;;18.10;29.30;;;;;;8364154;28;20280;-44
2023/02/27 10:43:00;;;;;;;;;;;18.20;29.20;;;;;;8356273;28;19932;-44
2023/02/27 10:47:00;;;;;;;;;;;18.10;29.20;;;;;;8346442;28;20000;-45
2023/02/27 10:51:19;;;;;;;;;;;18.10;29.20;;;;;;8365671;28;20297;-47
2023/02/27 10:55:24;;;;;;;;;;;18.10;29.20;;;;;;8365513;28;19944;-45
2023/02/27 10:59:30;;;;;;;;;;;18.00;29.10;;;;;;8364989;28;19925;-45
2023/02/27 11:03:36;;;;;;;;;;;18.10;29.30;;;;;;8341555;28;19968;-46
2023/02/27 11:07:37;;;;;;;;;;;18.00;29.20;;;;;;8349328;28;19917;-45
2023/02/27 11:11:37;;;;;;;;;;;18.00;29.30;;;;;;8365168;28;20011;-45
2023/02/27 11:15:38;;;;;;;;;;;18.00;29.30;;;;;;8364461;28;19920;-45
2023/02/27 11:19:38;;;;;;;;;;;18.00;29.30;;;;;;8365065;28;20328;-45
2023/02/27 11:23:48;;;;;;;;;;;18.00;29.30;;;;;;8364552;28;19917;-48
2023/02/27 11:27:50;;;;;;;;;;;17.90;29.30;;;;;;8364037;28;19927;-45
2023/02/27 11:31:55;;;;;;;;;;;17.90;29.20;;;;;;8364411;28;19925;-43
2023/02/27 11:35:57;;;;;;;;;;;17.90;29.30;;;;;;8364461;28;20301;-43
2023/02/27 11:39:57;;;;;;;;;;;17.90;29.20;;;;;;8363963;28;20290;-45
2023/02/27 11:43:59;;;;;;;;;;;17.90;29.30;;;;;;8364134;28;19967;-44
2023/02/27 11:48:06;;;;;;;;;;;17.90;29.30;;;;;;8364147;28;20271;-44
2023/02/27 11:52:20;;;;;;;;;;;17.90;29.30;;;;;;8363444;28;19916;-44
2023/02/27 11:56:22;;;;;;;;;;;17.90;29.30;;;;;;8363537;28;19927;-45
2023/02/27 12:00:31;;;;;;;;;;;17.80;29.30;;;;;;8364441;28;19925;-46
2023/02/27 12:04:35;;;;;;;;;;;17.80;29.30;;;;;;8363175;28;19917;-46
2023/02/27 12:08:41;;;;;;;;;;;17.80;29.30;;;;;;8363297;28;19917;-44
2023/02/27 12:13:00;;;;;;;;;;;17.80;29.30;;;;;;8362866;28;19923;-44
2023/02/27 12:17:05;;;;;;;;;;;17.80;29.30;;;;;;8363194;28;20035;-46
2023/02/27 12:21:09;;;;;;;;;;;17.80;29.30;;;;;;8363028;28;19917;-44
2023/02/27 12:25:14;;;;;;;;;;;17.80;29.30;;;;;;8363031;28;19996;-44
2023/02/27 12:29:21;;;;;;;;;;;17.80;29.30;;;;;;8363066;28;20373;-44
2023/02/27 12:33:22;;;;;;;;;;;17.80;29.30;;;;;;8363126;28;19917;-44
2023/02/27 12:37:24;;;;;;;;;;;17.80;29.30;;;;;;8361615;28;19932;-43
2023/02/27 12:41:32;;;;;;;;;;;17.80;29.30;;;;;;8362957;28;19913;-44
2023/02/27 12:45:35;;;;;;;;;;;17.70;29.30;;;;;;8362990;28;20072;-44
2023/02/27 12:49:53;;;;;;;;;;;17.70;29.30;;;;;;8362035;28;19921;-44
2023/02/27 12:53:57;;;;;;;;;;;17.70;29.30;;;;;;8362726;28;19921;-44
2023/02/27 12:58:04;;;;;;;;;;;17.70;29.20;;;;;;8361890;28;19929;-44
2023/02/27 13:02:23;;;;;;;;;;;17.70;29.20;;;;;;8362826;28;19925;-45
2023/02/27 13:06:47;;;;;;;;;;;17.70;29.30;;;;;;8362425;28;20424;-44
2023/02/27 13:10:54;;;;;;;;;;;17.70;29.30;;;;;;8362239;28;19920;-45
2023/02/27 13:14:57;;;;;;;;;;;17.70;29.30;;;;;;8362246;28;20480;-44
2023/02/27 13:19:04;;;;;;;;;;;17.70;29.30;;;;;;8361638;28;19931;-45
2023/02/27 13:23:29;;;;;;;;;;;17.70;29.30;;;;;;8362247;28;19916;-45
2023/02/27 13:27:31;;;;;;;;;;;17.70;29.30;;;;;;8362134;28;19921;-45
2023/02/27 13:31:39;;;;;;;;;;;17.70;29.20;;;;;;8361826;28;19920;-44
2023/02/27 13:35:42;;;;;;;;;;;17.70;29.20;;;;;;8362410;28;19916;-46
2023/02/27 13:39:43;;;;;;;;;;;17.60;29.20;;;;;;8361402;28;20290;-43
2023/02/27 13:43:44;;;;;;;;;;;17.70;29.20;;;;;;8361891;28;19917;-44
2023/02/27 13:47:48;;;;;;;;;;;17.60;29.20;;;;;;8364939;28;20294;-45
2023/02/27 13:51:50;;;;;;;;;;;17.60;29.20;;;;;;8367453;28;19914;-45
2023/02/27 13:55:51;;;;;;;;;;;17.60;29.20;;;;;;8367980;28;20063;-45
2023/02/27 14:00:03;;;;;;;;;;;17.60;29.20;;;;;;8367995;28;20404;-47
2023/02/27 14:04:05;;;;;;;;;;;17.60;29.20;;;;;;8367014;28;19959;-44
2023/02/27 14:08:18;;;;;;;;;;;17.60;29.20;;;;;;8367470;28;20038;-45
2023/02/27 14:12:28;;;;;;;;;;;17.60;29.20;;;;;;8366018;28;20397;-45
2023/02/27 14:16:38;;;;;;;;;;;17.60;29.20;;;;;;8366772;28;20735;-46
2023/02/27 14:20:39;;;;;;;;;;;17.60;29.20;;;;;;8367190;28;19924;-46
2023/02/27 14:24:43;;;;;;;;;;;17.60;29.20;;;;;;8366407;28;19920;-44
2023/02/27 14:28:43;;;;;;;;;;;17.60;29.60;;;;;;8366560;28;19924;-45
2023/02/27 14:32:43;;;;;;;;;;;17.60;29.20;;;;;;8366817;28;19917;-44
2023/02/27 14:36:45;;;;;;;;;;;17.60;29.20;;;;;;8366229;28;19913;-45
2023/02/27 14:41:15;;;;;;;;;;;17.60;29.20;;;;;;8366407;28;19917;-46
2023/02/27 14:45:18;;;;;;;;;;;17.50;29.20;;;;;;8279588;28;20279;-44
2023/02/27 14:49:19;;;;;;;;;;;17.50;29.20;;;;;;8352302;28;19917;-44
2023/02/27 14:53:24;;;;;;;;;;;17.50;29.20;;;;;;8365882;28;20378;-44
2023/02/27 14:57:27;;;;;;;;;;;17.50;29.20;;;;;;8365624;28;19925;-44
2023/02/27 15:01:32;;;;;;;;;;;17.50;29.20;;;;;;8365162;28;19920;-44
2023/02/27 15:05:32;;;;;;;;;;;17.50;29.20;;;;;;8365660;28;19916;-44
2023/02/27 15:09:42;;;;;;;;;;;17.50;29.20;;;;;;8365398;28;20333;-44
2023/02/27 15:13:43;;;;;;;;;;;17.50;29.20;;;;;;8365546;28;20374;-44
2023/02/27 15:17:45;;;;;;;;;;;17.50;29.20;;;;;;8364950;28;19935;-45
2023/02/27 15:21:48;;;;;;;;;;;17.40;29.20;;;;;;8364657;28;19947;-45
2023/02/27 15:25:53;;;;;;;;;;;17.40;29.20;;;;;;8365012;28;19917;-48
2023/02/27 15:29:55;;;;;;;;;;;17.40;29.20;;;;;;8364699;28;19970;-45
2023/02/27 15:33:55;;;;;;;;;;;17.40;29.30;;;;;;8363949;28;19913;-44
2023/02/27 15:37:57;;;;;;;;;;;17.40;29.20;;;;;;8364617;28;20449;-44
2023/02/27 15:42:02;;;;;;;;;;;17.40;29.30;;;;;;8364494;28;19924;-44
2023/02/27 15:46:02;;;;;;;;;;;17.30;29.20;;;;;;8363491;28;19916;-44
2023/02/27 15:50:09;;;;;;;;;;;17.40;29.30;;;;;;8364288;28;20415;-44
2023/02/27 15:54:10;;;;;;;;;;;17.40;29.20;;;;;;8363676;28;19913;-45
2023/02/27 15:58:23;;;;;;;;;;;17.40;29.30;;;;;;8363189;28;19932;-45
2023/02/27 16:02:28;;;;;;;;;;;17.40;29.30;;;;;;8363869;28;19956;-43
2023/02/27 16:06:28;;;;;;;;;;;17.40;29.30;;;;;;8363956;28;19916;-46
2023/02/27 16:10:34;;;;;;;;;;;17.30;29.30;;;;;;8362026;28;20138;-46
2023/02/27 16:14:35;;;;;;;;;;;17.40;29.20;;;;;;8368595;28;19972;-46
2023/02/27 16:18:42;;;;;;;;;;;17.50;29.20;;;;;;8363019;28;19924;-45
2023/02/27 16:22:59;;;;;;;;;;;17.60;29.20;;;;;;8362834;28;19919;-46
2023/02/27 16:27:00;;;;;;;;;;;17.80;29.10;;;;;;8364047;28;19920;-45
2023/02/27 16:31:01;;;;;;;;;;;17.90;29.00;;;;;;8362462;28;20024;-44
2023/02/27 16:35:06;;;;;;;;;;;18.00;29.00;;;;;;8363228;28;20376;-44
2023/02/27 16:39:12;;;;;;;;;;;18.00;28.90;;;;;;8362565;28;19932;-43
2023/02/27 16:43:12;;;;;;;;;;;18.10;28.90;;;;;;8362296;28;20396;-44
2023/02/27 16:47:13;;;;;;;;;;;18.20;28.90;;;;;;8362759;28;19913;-44
2023/02/27 16:51:15;;;;;;;;;;;18.30;28.90;;;;;;8362685;28;19916;-44
2023/02/27 16:55:15;;;;;;;;;;;18.40;28.90;;;;;;8361842;28;19940;-44
2023/02/27 16:59:35;;;;;;;;;;;18.40;28.90;;;;;;8361846;28;20277;-45
2023/02/27 17:03:36;;;;;;;;;;;18.50;28.90;;;;;;8362256;28;20346;-44
2023/02/27 17:07:36;;;;;;;;;;;18.50;28.80;;;;;;8360947;28;19920;-44
2023/02/27 17:11:37;;;;;;;;;;;18.60;28.80;;;;;;8362449;28;19917;-45
2023/02/27 17:15:37;;;;;;;;;;;18.60;28.80;;;;;;8361581;28;19925;-44
2023/02/27 17:19:38;;;;;;;;;;;18.60;28.80;;;;;;8362025;28;19948;-47
2023/02/27 17:23:38;;;;;;;;;;;18.70;28.70;;;;;;8366879;28;19919;-44
2023/02/27 17:27:40;;;;;;;;;;;18.70;28.70;;;;;;8368125;28;20393;-45
2023/02/27 17:31:41;;;;;;;;;;;18.70;29.10;;;;;;8368357;28;20089;-45
2023/02/27 17:35:41;;;;;;;;;;;18.80;28.70;;;;;;8368404;28;19966;-45
2023/02/27 17:39:41;;;;;;;;;;;18.80;28.70;;;;;;8367578;28;20366;-43
2023/02/27 17:43:42;;;;;;;;;;;18.80;28.70;;;;;;8368420;28;19936;-44
2023/02/27 17:47:42;;;;;;;;;;;18.90;28.70;;;;;;8368516;28;19921;-44
2023/02/27 17:51:43;;;;;;;;;;;18.90;28.70;;;;;;8367374;28;20430;-44
2023/02/27 17:55:43;;;;;;;;;;;18.90;28.70;;;;;;8367694;28;20019;-46
2023/02/27 17:59:44;;;;;;;;;;;19.00;28.70;;;;;;8367319;28;19932;-44
2023/02/27 18:03:45;;;;;;;;;;;19.00;28.60;;;;;;8366824;28;20317;-47
2023/02/27 18:07:45;;;;;;;;;;;19.00;28.60;;;;;;8367472;28;19917;-45
2023/02/27 18:11:46;;;;;;;;;;;19.00;28.50;;;;;;8367073;28;19924;-45
2023/02/27 18:15:46;;;;;;;;;;;19.00;28.50;;;;;;8366670;28;19917;-45
2023/02/27 18:19:46;;;;;;;;;;;19.10;28.50;;;;;;8366968;28;19978;-45
2023/02/27 18:23:48;;;;;;;;;;;19.10;28.50;;;;;;8366756;28;19923;-46
2023/02/27 18:27:49;;;;;;;;;;;19.10;28.50;;;;;;8366371;28;19913;-46
2023/02/27 18:31:52;;;;;;;;;;;19.10;28.50;;;;;;8366633;28;19924;-44
2023/02/27 18:35:52;;;;;;;;;;;19.10;28.50;;;;;;8365456;28;20393;-45
2023/02/27 18:39:53;;;;;;;;;;;19.10;28.50;;;;;;8365758;28;19932;-46
2023/02/27 18:43:54;;;;;;;;;;;19.10;28.50;;;;;;8366094;28;20298;-44
2023/02/27 18:47:54;;;;;;;;;;;19.10;28.60;;;;;;8366362;28;19938;-44
2023/02/27 18:51:55;;;;;;;;;;;19.20;28.60;;;;;;8365488;28;19923;-45
2023/02/27 18:55:59;;;;;;;;;;;19.10;28.50;;;;;;8365878;28;19940;-45
2023/02/27 19:00:00;;;;;;;;;;;19.10;28.50;;;;;;8366083;28;19925;-44
2023/02/27 19:04:04;;;;;;;;;;;19.10;28.90;;;;;;8365032;28;20007;-46
2023/02/27 19:08:05;;;;;;;;;;;19.20;28.50;;;;;;8365380;28;19913;-45
2023/02/27 19:12:05;;;;;;;;;;;19.20;28.50;;;;;;8365082;28;20308;-44
2023/02/27 19:16:06;;;;;;;;;;;19.20;28.60;;;;;;8364201;28;19921;-45
2023/02/27 19:20:07;;;;;;;;;;;19.20;28.50;;;;;;8364835;28;19925;-44
2023/02/27 19:24:09;;;;;;;;;;;19.30;28.60;;;;;;8364694;28;19925;-45
2023/02/27 19:28:10;;;;;;;;;;;19.30;28.60;;;;;;8364373;28;19923;-45
2023/02/27 19:32:10;;;;;;;;;;;19.30;28.50;;;;;;8364595;28;19917;-45
2023/02/27 19:36:12;;;;;;;;;;;19.30;28.50;;;;;;8364464;28;19929;-46
2023/02/27 19:40:14;;;;;;;;;;;19.30;28.50;;;;;;8363749;28;20309;-45
2023/02/27 19:44:14;;;;;;;;;;;19.30;28.40;;;;;;8363990;28;19936;-44
2023/02/27 19:48:18;;;;;;;;;;;19.40;28.40;;;;;;8364323;28;19913;-43
2023/02/27 19:52:18;;;;;;;;;;;19.40;28.40;;;;;;8345750;28;19924;-46
2023/02/27 19:56:21;;;;;;;;;;;19.40;28.40;;;;;;8363775;28;19999;-46
2023/02/27 20:00:21;;;;;;;;;;;19.40;28.40;;;;;;8364019;28;20397;-45
2023/02/27 20:04:22;;;;;;;;;;;19.40;28.40;;;;;;8363102;28;19913;-45
2023/02/27 20:08:22;;;;;;;;;;;19.40;28.40;;;;;;8333606;28;19924;-45
2023/02/27 20:12:23;;;;;;;;;;;19.50;28.50;;;;;;8339943;28;19955;-45
2023/02/27 20:16:26;;;;;;;;;;;19.50;28.50;;;;;;8362798;28;19940;-45
2023/02/27 20:20:26;;;;;;;;;;;19.50;28.40;;;;;;8362892;28;19925;-45
2023/02/27 20:24:27;;;;;;;;;;;19.50;28.40;;;;;;8363021;28;19920;-43
2023/02/27 20:28:28;;;;;;;;;;;19.50;28.30;;;;;;8362681;28;20381;-47
2023/02/27 20:32:28;;;;;;;;;;;19.40;28.20;;;;;;8363015;28;20233;-46
2023/02/27 20:36:29;;;;;;;;;;;19.40;28.30;;;;;;8362976;28;19920;-45
2023/02/27 20:40:29;;;;;;;;;;;19.40;28.30;;;;;;8362336;28;19979;-45
2023/02/27 20:44:30;;;;;;;;;;;19.40;28.30;;;;;;8363078;28;19955;-46
2023/02/27 20:48:30;;;;;;;;;;;19.30;28.30;;;;;;8363039;28;19917;-44
2023/02/27 20:52:31;;;;;;;;;;;19.30;28.30;;;;;;8362394;28;20290;-46
2023/02/27 20:56:32;;;;;;;;;;;19.30;28.50;;;;;;8363906;28;19927;-45
2023/02/27 21:00:33;;;;;;;;;;;19.40;28.50;;;;;;8369259;28;19931;-46
2023/02/27 21:04:44;;;;;;;;;;;19.40;28.40;;;;;;8368770;28;20382;-46
2023/02/27 21:08:46;;;;;;;;;;;19.50;28.50;;;;;;8369468;28;20304;-45
2023/02/27 21:12:46;;;;;;;;;;;19.50;28.50;;;;;;8368499;28;20009;-45
2023/02/27 21:16:47;;;;;;;;;;;19.50;28.40;;;;;;8369069;28;20289;-45
2023/02/27 21:20:47;;;;;;;;;;;19.50;28.40;;;;;;8368777;28;20019;-45
2023/02/27 21:24:50;;;;;;;;;;;19.50;28.30;;;;;;8368139;28;19959;-45
2023/02/27 21:28:52;;;;;;;;;;;19.50;28.30;;;;;;8368554;28;19913;-44
2023/02/27 21:32:52;;;;;;;;;;;19.50;28.30;;;;;;8368260;28;20064;-45
2023/02/27 21:36:53;;;;;;;;;;;19.50;28.20;;;;;;8367799;28;19917;-44
2023/02/27 21:40:53;;;;;;;;;;;19.50;28.20;;;;;;8368094;28;19921;-44
2023/02/27 21:44:54;;;;;;;;;;;19.40;28.20;;;;;;8368052;28;20335;-45
2023/02/27 21:48:54;;;;;;;;;;;19.40;28.30;;;;;;8367634;28;19917;-44
2023/02/27 21:52:55;;;;;;;;;;;19.30;28.20;;;;;;8367984;28;20012;-43
2023/02/27 21:56:57;;;;;;;;;;;19.30;28.30;;;;;;8367597;28;20278;-43
2023/02/27 22:00:58;;;;;;;;;;;19.30;28.40;;;;;;8366997;28;19971;-44
2023/02/27 22:04:59;;;;;;;;;;;19.30;28.30;;;;;;8367753;28;19913;-44
2023/02/27 22:09:00;;;;;;;;;;;19.30;28.30;;;;;;8367351;28;19971;-45
2023/02/27 22:13:01;;;;;;;;;;;19.30;28.30;;;;;;8366680;28;20316;-45
2023/02/27 22:17:01;;;;;;;;;;;19.20;28.30;;;;;;8366992;28;19921;-44
2023/02/27 22:21:05;;;;;;;;;;;19.20;28.30;;;;;;8366943;28;19917;-45
2023/02/27 22:25:06;;;;;;;;;;;19.20;28.70;;;;;;8366221;28;20278;-44
2023/02/27 22:29:06;;;;;;;;;;;19.10;28.30;;;;;;8366841;28;19917;-44
2023/02/27 22:33:07;;;;;;;;;;;19.10;28.80;;;;;;8366425;28;19917;-43
2023/02/27 22:37:07;;;;;;;;;;;19.10;28.40;;;;;;8365862;28;19924;-45
2023/02/27 22:41:10;;;;;;;;;;;19.00;28.40;;;;;;8366483;28;20286;-44
2023/02/27 22:45:10;;;;;;;;;;;19.00;28.40;;;;;;8366181;28;19921;-44
2023/02/27 22:49:18;;;;;;;;;;;19.00;28.40;;;;;;8365682;28;20487;-45
2023/02/27 22:53:19;;;;;;;;;;;18.90;28.50;;;;;;8365832;28;19971;-44
2023/02/27 22:57:19;;;;;;;;;;;18.90;28.60;;;;;;8365964;28;20008;-44
2023/02/27 23:01:21;;;;;;;;;;;18.80;28.60;;;;;;8364142;28;19921;-46
2023/02/27 23:05:21;;;;;;;;;;;18.80;28.70;;;;;;8364617;28;19968;-44
2023/02/27 23:09:24;;;;;;;;;;;18.70;28.60;;;;;;8365567;28;19921;-45
2023/02/27 23:13:24;;;;;;;;;;;18.70;28.70;;;;;;8364587;28;19991;-43
2023/02/27 23:17:25;;;;;;;;;;;18.70;28.70;;;;;;8365268;28;20044;-44
2023/02/27 23:21:30;;;;;;;;;;;18.60;28.70;;;;;;8364349;28;20370;-43
2023/02/27 23:25:34;;;;;;;;;;;18.60;28.70;;;;;;8364326;28;19928;-45
2023/02/27 23:29:34;;;;;;;;;;;18.60;28.80;;;;;;8364907;28;20003;-44
2023/02/27 23:33:35;;;;;;;;;;;18.50;28.80;;;;;;8364395;28;19924;-44